ADDS - METARS form results

Aviation Digital Data Service (ADDS)

Output produced by METARs form (0201 UTC 18 November 2019)
found at http://aviationweather.gov/metar/data/
 
METAR text: KJOT 180155Z AUTO 00000KT 4SM DZ BKN041 BKN046 OVC060 04/04 A2986 RMK AO2 P0001 T00350035
Conditions at: KJOT (JOLIET , IL, US) observed 0155 UTC 18 November 2019
Temperature: 3.5°C (38°F)
Dewpoint: 3.5°C (38°F) [RH = 100%]
Pressure (altimeter): 29.86 inches Hg (1011.3 mb)
Winds: calm
Visibility: 4 miles ( 6 km)
Ceiling: 4100 feet AGL
Clouds: broken clouds at 4100 feet AGL
broken clouds at 4600 feet AGL
overcast cloud deck at 6000 feet AGL
Weather: DZ  (moderate drizzle)

METAR text: KJOT 180135Z AUTO 00000KT 4SM DZ SCT043 BKN050 OVC060 04/04 A2987 RMK AO2 T00360036
Conditions at: KJOT (JOLIET , IL, US) observed 0135 UTC 18 November 2019
Temperature: 3.6°C (38°F)
Dewpoint: 3.6°C (38°F) [RH = 100%]
Pressure (altimeter): 29.87 inches Hg (1011.6 mb)
Winds: calm
Visibility: 4 miles ( 6 km)
Ceiling: 5000 feet AGL
Clouds: scattered clouds at 4300 feet AGL
broken clouds at 5000 feet AGL
overcast cloud deck at 6000 feet AGL
Weather: DZ  (moderate drizzle)

METAR text: KJOT 180115Z AUTO 00000KT 5SM RA SCT041 OVC050 04/04 A2988 RMK AO2 T00380037
Conditions at: KJOT (JOLIET , IL, US) observed 0115 UTC 18 November 2019
Temperature: 3.8°C (39°F)
Dewpoint: 3.7°C (39°F) [RH = 99%]
Pressure (altimeter): 29.88 inches Hg (1011.9 mb)
Winds: calm
Visibility: 5 miles ( 8 km)
Ceiling: 5000 feet AGL
Clouds: scattered clouds at 4100 feet AGL
overcast cloud deck at 5000 feet AGL
Weather: RA  (moderate rain)